Flight Track Log - Related Links

Times and Time Zones

All times are in EDT time to prevent confusion due to time zone crossing. See the N93AT flight status page for this flight to view local times or setup timezone preferences in your user account.

Time Position Orientation Groundspeed Altitude Reporting Facility
EDT Latitude Longitude Course Direction KTS MPH feet Rate Location/Type
Mon 09:27:43 AM 25.0303 -77.3772 358° North 462 532 4,500  Level Miami Center
Mon 09:28:43 AM 25.1014 -77.3797 358° North 336 387 8,100 3,100 Climbing Miami Center
Mon 09:29:43 AM 25.1786 -77.3686 North 278 320 10,700 2,000 Climbing Miami Center
Mon 09:30:43 AM 25.2667 -77.3253 24° Northeast 303 349 12,100 1,550 Climbing Miami Center
Mon 09:31:43 AM 25.3608 -77.2775 25° Northeast 343 395 13,800 2,050 Climbing Miami Center
Mon 09:32:43 AM 25.4592 -77.2269 25° Northeast 366 421 16,200 2,350 Climbing Miami Center
Mon 09:33:43 AM 25.5636 -77.1881 19° North 380 437 18,500 1,950 Climbing Miami Center
Mon 09:34:43 AM 25.6744 -77.1931 358° North 385 443 20,100 1,800 Climbing Miami Center
Mon 09:35:43 AM 25.7894 -77.2142 351° North 397 457 22,100 2,000 Climbing Miami Center
Mon 09:36:43 AM 25.9042 -77.2331 352° North 410 472 24,100 1,700 Climbing Miami Center
Mon 09:37:43 AM 26.0192 -77.2564 350° North 415 478 25,500 1,300 Climbing Miami Center
Mon 09:38:43 AM 26.1403 -77.2753 352° North 422 486 26,700 1,200 Climbing Miami Center
Mon 09:39:43 AM 26.2656 -77.2967 351° North 443 510 27,900 1,700 Climbing Miami Center
Mon 09:40:43 AM 26.3886 -77.3203 350° North 449 517 30,100 1,900 Climbing Miami Center
Mon 09:41:43 AM 26.5203 -77.3464 350° North 438 504 31,700 1,750 Climbing Miami Center
Mon 09:42:43 AM 26.6372 -77.3656 352° North 438 504 33,600 2,150 Climbing Miami Center
Mon 09:43:43 AM 26.7519 -77.3869 351° North 421 484 36,000 1,850 Climbing Miami Center
Mon 09:44:43 AM 26.8606 -77.4036 352° North 406 467 37,300 1,350 Climbing Miami Center
Mon 09:45:43 AM 26.9711 -77.4250 350° North 406 467 38,700 1,300 Climbing Miami Center
Mon 09:46:43 AM 27.0797 -77.4442 351° North 400 460 39,900 1,150 Climbing Miami Center
Mon 09:47:43 AM 27.1925 -77.4683 349° North 400 460 41,000 550 Climbing Miami Center
Mon 09:48:43 AM 27.2947 -77.4828 353° North 413 475 41,000  Level Miami Center
Mon 09:49:43 AM 27.4158 -77.5114 348° North 425 489 41,000  Level Miami Center
Mon 09:50:43 AM 27.5389 -77.5264 354° North 431 496 41,000  Level Miami Center
Mon 09:51:43 AM 27.6747 -77.5317 358° North 436 502 41,000 300 Level Miami Center
Mon 09:52:43 AM 27.8042 -77.5372 358° North 444 511 41,600 750 Climbing Miami Center
Mon 09:53:43 AM 27.9253 -77.5425 358° North 440 506 42,500 700 Climbing Miami Center
Mon 09:54:43 AM 28.0525 -77.5481 358° North 448 516 43,000 250 Climbing Miami Center
Mon 09:55:43 AM 28.1778 -77.5536 358° North 453 521 43,000  Level Miami Center
Mon 09:56:43 AM 28.3008 -77.5614 357° North 448 516 43,000  Level Miami Center
Mon 09:57:43 AM 28.4325 -77.5669 358° North 442 509 43,000  Level Miami Center
Mon 09:58:43 AM 28.5431 -77.5747 356° North 447 514 43,000  Level Miami Center
Mon 09:59:43 AM 28.6744 -77.5803 358° North 438 504 43,000  Level Miami Center
Mon 10:00:43 AM 28.7956 -77.5881 357° North 443 510 43,000  Level Miami Center
Mon 10:01:43 AM 28.9144 -77.5936 358° North 438 504 43,000  Level Miami Center
Mon 10:02:43 AM 29.0375 -77.5992 358° North 438 504 43,000  Level Miami Center
Mon 10:03:43 AM 29.1586 -77.6047 358° North 439 505 43,000  Level Miami Center
Mon 10:04:43 AM 29.2794 -77.6103 358° North 439 505 43,000  Level Miami Center
Mon 10:05:43 AM 29.4089 -77.6183 357° North 439 505 43,000  Level Miami Center
Mon 10:06:43 AM 29.5278 -77.6217 359° North 441 507 43,000  Level Miami Center
Mon 10:08:19 AM 29.7239 -77.6294 358° North 450 518 43,000  Level Jacksonville Center
Mon 10:09:19 AM 29.8492 -77.6344 358° North 435 501 43,000  Level Jacksonville Center
Mon 10:10:19 AM 29.9789 -77.6419 357° North 453 521 43,000  Level Jacksonville Center
Mon 10:11:19 AM 30.1044 -77.6519 356° North 456 525 43,000  Level Jacksonville Center
Mon 10:12:19 AM 30.2131 -77.6508 North 445 512 43,000  Level Jacksonville Center
Mon 10:13:20 AM 30.3367 -77.6608 356° North 445 512 43,000  Level Jacksonville Center
Mon 10:14:19 AM 30.4597 -77.6614 360° North 445 512 43,000  Level Jacksonville Center
Mon 10:15:19 AM 30.5831 -77.6642 359° North 445 512 43,000  Level Jacksonville Center
Mon 10:16:19 AM 30.7086 -77.6742 356° North 445 512 43,000  Level Jacksonville Center
Mon 10:17:19 AM 30.8339 -77.6769 359° North 445 512 43,000  Level Jacksonville Center
Mon 10:18:19 AM 30.9575 -77.6872 356° North 445 512 43,000  Level Jacksonville Center
Mon 10:19:19 AM 31.0853 -77.6969 356° North 445 512 43,000  Level Jacksonville Center
Mon 10:20:19 AM 31.2106 -77.6997 359° North 445 512 43,000  Level Jacksonville Center
Mon 10:21:19 AM 31.3342 -77.7100 356° North 445 512 43,000  Level Jacksonville Center
Mon 10:22:19 AM 31.4597 -77.7153 358° North 445 512 43,000  Level Jacksonville Center
Mon 10:23:19 AM 31.5831 -77.7253 356° North 445 512 43,000  Level Jacksonville Center
Mon 10:24:19 AM 31.7044 -77.7308 358° North 440 506 43,000  Level Jacksonville Center
Mon 10:25:20 AM 31.8281 -77.7411 356° North 445 512 43,000  Level Jacksonville Center
Mon 10:26:19 AM 31.9531 -77.7389 North 445 512 43,000  Level Jacksonville Center
Mon 10:27:19 AM 32.0786 -77.7442 358° North 445 512 43,000  Level Jacksonville Center
Mon 10:28:19 AM 32.2044 -77.7567 355° North 445 512 43,000  Level Jacksonville Center
Mon 10:29:19 AM 32.3297 -77.7644 357° North 445 512 43,000  Level Jacksonville Center
Mon 10:30:19 AM 32.4531 -77.7672 359° North 445 512 43,000  Level Jacksonville Center
Mon 10:31:19 AM 32.5767 -77.7750 357° North 445 512 43,000  Level Jacksonville Center
Mon 10:32:19 AM 32.7022 -77.7853 356° North 445 512 43,000  Level Jacksonville Center
Mon 10:33:19 AM 32.8256 -77.7931 357° North 445 512 43,000  Level Jacksonville Center
Mon 10:34:19 AM 32.9417 -77.8236 348° North 435 501 43,000  Level Jacksonville Center
Mon 10:35:19 AM 33.0483 -77.8794 336° Northwest 424 488 43,000  Level Jacksonville Center
Mon 10:36:19 AM 33.1592 -77.9378 336° Northwest 424 488 43,000  Level Jacksonville Center
Mon 10:38:39 AM 33.4272 -78.0275 344° North 432 497 43,000  Level Washington Center
Mon 10:39:39 AM 33.5528 -78.0086 North 432 497 43,000  Level Washington Center
Mon 10:40:39 AM 33.6742 -77.9897 North 442 509 43,000  Level Washington Center
Mon 10:41:39 AM 33.7978 -77.9683 North 442 509 43,000  Level Washington Center
Mon 10:42:39 AM 33.9275 -77.9469 North 454 522 43,000  Level Washington Center
Mon 10:43:39 AM 34.0531 -77.9281 North 459 528 43,000  Level Washington Center
Mon 10:44:39 AM 34.1786 -77.9039 North 459 528 43,000  Level Washington Center
Mon 10:45:39 AM 34.3208 -77.8853 North 459 528 43,000  Level Washington Center
Mon 10:46:39 AM 34.4442 -77.8761 North 459 528 43,000  Level Washington Center
Mon 10:47:39 AM 34.5672 -77.8744 North 454 522 43,000  Level Washington Center
Mon 10:48:39 AM 34.6925 -77.8731 North 448 516 43,000  Level Washington Center
Mon 10:49:39 AM 34.8136 -77.8739 360° North 440 506 43,000  Level Washington Center
Mon 10:50:39 AM 34.9306 -77.8644 North 423 487 43,000  Level Washington Center
Mon 10:51:39 AM 35.0494 -77.8628 North 423 487 43,000  Level Washington Center
Mon 10:52:39 AM 35.1686 -77.8611 North 423 487 43,000  Level Washington Center
Mon 10:58:12 AM 35.8560 -77.8640 North 438 504 43,000  Level FlightAware ADS-B
Mon 10:58:52 AM 35.9340 -77.8630 North 438 504 43,000  Level FlightAware ADS-B
Mon 10:59:32 AM 36.0170 -77.8620 North 437 503 43,000  Level FlightAware ADS-B
Mon 11:00:12 AM 36.0940 -77.8610 North 436 502 43,000  Level FlightAware ADS-B
Mon 11:00:57 AM 36.1880 -77.8600 360° North 435 501 43,000  Level FlightAware ADS-B
Mon 11:01:37 AM 36.2720 -77.8590 North 435 501 43,000  Level FlightAware ADS-B
Mon 11:02:27 AM 36.3730 -77.8580 360° North 437 503 43,000  Level FlightAware ADS-B
Mon 11:03:17 AM 36.4760 -77.8570 360° North 441 507 43,000  Level FlightAware ADS-B
Mon 11:03:57 AM 36.5570 -77.8560 North 443 510 43,000  Level FlightAware ADS-B
Mon 11:04:32 AM 36.6200 -77.8550 North 443 510 43,000  Level FlightAware ADS-B
Mon 11:05:22 AM 36.7070 -77.8530 North 443 510 43,000  Level FlightAware ADS-B
Mon 11:06:02 AM 36.7770 -77.8510 North 443 510 43,000  Level FlightAware ADS-B
Mon 11:06:42 AM 36.8460 -77.8500 North 443 510 43,000  Level FlightAware ADS-B
Mon 11:07:27 AM 36.9800 -77.8530 359° North 438 504 43,000  Level FlightAware ADS-B
Mon 11:07:32 AM 36.9900 -77.8510 North 437 503 43,000  Level FlightAware ADS-B
Mon 11:08:02 AM 37.0470 -77.8500 North 436 502 43,000  Level FlightAware ADS-B
Mon 11:08:42 AM 37.1310 -77.8490 North 436 502 43,000  Level FlightAware ADS-B
Mon 11:09:22 AM 37.1930 -77.8490 360° North 438 504 43,000  Level FlightAware ADS-B
Mon 11:10:27 AM 37.3280 -77.8470 North 439 505 43,000  Level FlightAware ADS-B
Mon 11:11:12 AM 37.4400 -77.8400 North 446 513 43,000  Level FlightAware ADS-B
Mon 11:11:47 AM 37.5090 -77.8200 13° North 452 520 43,000  Level FlightAware ADS-B
Mon 11:12:06 AM 37.5515 -77.8016 19° North 456 525 43,000  Level FlightAware ADS-B
Mon 11:12:37 AM 37.6090 -77.7680 25° Northeast 464 534 43,000  Level FlightAware ADS-B
Mon 11:13:10 AM 37.6718 -77.7160 33° Northeast 469 540 43,000  Level FlightAware ADS-B
Mon 11:13:53 AM 37.7477 -77.6465 36° Northeast 477 549 43,000 -164 Level FlightAware ADS-B
Mon 11:14:23 AM 37.8020 -77.5967 36° Northeast 480 552 42,800 -581 Descending FlightAware ADS-B
Mon 11:14:55 AM 37.8602 -77.5433 36° Northeast 496 571 42,400 -667 Descending FlightAware ADS-B
Mon 11:15:26 AM 37.9189 -77.4892 36° Northeast 505 581 42,100 -677 Descending FlightAware ADS-B
Mon 11:15:57 AM 37.9786 -77.4343 36° Northeast 510 587 41,700 -968 Descending FlightAware ADS-B
Mon 11:16:28 AM 38.0360 -77.3797 37° Northeast 509 586 41,100 -1,378 Descending FlightAware ADS-B
Mon 11:17:11 AM 38.1173 -77.3057 36° Northeast 493 567 40,000 -1,297 Descending FlightAware ADS-B
Mon 11:17:42 AM 38.1610 -77.2660 36° Northeast 495 570 39,500 -1,256 Descending FlightAware ADS-B
Mon 11:17:54 AM 38.1970 -77.2326 36° Northeast 499 574 39,100 -1,636 Descending FlightAware ADS-B
Mon 11:18:26 AM 38.2563 -77.1776 36° Northeast 497 572 38,300 -1,391 Descending FlightAware ADS-B
Mon 11:19:03 AM 38.3232 -77.1155 36° Northeast 482 555 37,500 -1,315 Descending FlightAware ADS-B
Mon 11:19:39 AM 38.3867 -77.0563 36° Northeast 466 536 36,700 -1,304 Descending FlightAware ADS-B
Mon 11:20:12 AM 38.4447 -77.0022 36° Northeast 461 531 36,000 -1,364 Descending FlightAware ADS-B
Mon 11:20:45 AM 38.5023 -76.9486 36° Northeast 468 539 35,200 -1,477 Descending FlightAware ADS-B
Mon 11:21:17 AM 38.5581 -76.8962 36° Northeast 479 551 34,400 -1,645 Descending FlightAware ADS-B
Mon 11:21:47 AM 38.6116 -76.8455 37° Northeast 472 543 33,500 -1,800 Descending FlightAware ADS-B
Mon 11:22:17 AM 38.6634 -76.7943 38° Northeast 458 527 32,600 -1,742 Descending FlightAware ADS-B
Mon 11:22:49 AM 38.7143 -76.7415 39° Northeast 456 525 31,700 -1,742 Descending FlightAware ADS-B
Mon 11:23:19 AM 38.7646 -76.6874 40° Northeast 466 536 30,800 -1,742 Descending FlightAware ADS-B
Mon 11:23:51 AM 38.8170 -76.6283 41° Northeast 493 567 29,900 -1,810 Descending FlightAware ADS-B
Mon 11:24:22 AM 38.8711 -76.5658 42° Northeast 495 570 28,900 -1,935 Descending FlightAware ADS-B
Mon 11:24:53 AM 38.9225 -76.5061 42° Northeast 488 562 27,900 -1,869 Descending FlightAware ADS-B
Mon 11:25:23 AM 38.9727 -76.4478 42° Northeast 479 551 27,000 -1,800 Descending FlightAware ADS-B
Mon 11:25:53 AM 39.0218 -76.3907 42° Northeast 470 541 26,100 -1,770 Descending FlightAware ADS-B
Mon 11:26:24 AM 39.0704 -76.3340 42° Northeast 462 532 25,200 -1,672 Descending FlightAware ADS-B
Mon 11:26:54 AM 39.1179 -76.2786 42° Northeast 462 532 24,400 -1,286 Descending FlightAware ADS-B
Mon 11:27:20 AM 39.1593 -76.2297 42° Northeast 462 532 24,000 -558 Descending FlightAware ADS-B
Mon 11:27:37 AM 39.1847 -76.1951 47° Northeast 463 533 24,000  Level FlightAware ADS-B
Mon 11:28:08 AM 39.2345 -76.1396 41° Northeast 458 527 24,000  Level FlightAware ADS-B
Mon 11:28:39 AM 39.2862 -76.0886 37° Northeast 459 528 24,000 -689 Level FlightAware ADS-B
Mon 11:29:09 AM 39.3377 -76.0395 36° Northeast 455 524 23,300 -1,900 Descending FlightAware ADS-B
Mon 11:29:39 AM 39.3882 -75.9915 36° Northeast 443 510 22,100 -2,361 Descending FlightAware ADS-B
Mon 11:30:10 AM 39.4388 -75.9435 36° Northeast 441 507 20,900 -2,361 Descending FlightAware ADS-B
Mon 11:30:40 AM 39.4893 -75.8956 36° Northeast 433 498 19,700 -2,381 Descending FlightAware ADS-B
Mon 11:31:13 AM 39.5414 -75.8463 36° Northeast 412 474 18,400 -2,531 Descending FlightAware ADS-B
Mon 11:31:44 AM 39.5887 -75.8017 36° Northeast 407 468 17,000 -2,585 Descending FlightAware ADS-B
Mon 11:32:18 AM 39.6400 -75.7549 35° Northeast 399 459 15,600 -2,273 Descending FlightAware ADS-B
Mon 11:32:50 AM 39.6876 -75.7112 35° Northeast 391 450 14,500 -2,032 Descending FlightAware ADS-B
Mon 11:33:20 AM 39.7317 -75.6708 35° Northeast 382 440 13,500 -1,800 Descending FlightAware ADS-B
Mon 11:33:50 AM 39.7746 -75.6311 35° Northeast 370 426 12,700 -900 Descending FlightAware ADS-B
Mon 11:34:20 AM 39.8173 -75.5920 35° Northeast 377 434 12,600 -97 Descending FlightAware ADS-B
Mon 11:34:52 AM 39.8630 -75.5499 35° Northeast 379 436 12,600  Level FlightAware ADS-B
Mon 11:35:22 AM 39.9065 -75.5099 35° Northeast 378 435 12,600  Level FlightAware ADS-B
Mon 11:35:53 AM 39.9506 -75.4690 35° Northeast 375 432 12,600  Level FlightAware ADS-B
Mon 11:36:25 AM 39.9948 -75.4283 35° Northeast 373 429 12,600  Level FlightAware ADS-B
Mon 11:36:55 AM 40.0382 -75.3881 35° Northeast 373 429 12,600  Level FlightAware ADS-B
Mon 11:37:27 AM 40.0830 -75.3464 35° Northeast 373 429 12,600 -290 Level FlightAware ADS-B
Mon 11:37:57 AM 40.1256 -75.3071 35° Northeast 372 428 12,300 -885 Descending FlightAware ADS-B
Mon 11:38:28 AM 40.1670 -75.2686 35° Northeast 339 390 11,700 -1,082 Descending FlightAware ADS-B
Mon 11:38:58 AM 40.2039 -75.2343 35° Northeast 307 353 11,200 -885 Descending FlightAware ADS-B
Mon 11:39:29 AM 40.2381 -75.2027 35° Northeast 294 338 10,800 -947 Descending FlightAware ADS-B
Mon 11:39:55 AM 40.2672 -75.1756 35° Northeast 292 336 10,300 -1,350 Descending FlightAware ADS-B
Mon 11:40:09 AM 40.2825 -75.1610 36° Northeast 290 334 9,900 -1,655 Descending FlightAware ADS-B
Mon 11:40:24 AM 40.2987 -75.1444 38° Northeast 287 330 9,500 -1,742 Descending FlightAware ADS-B
Mon 11:40:40 AM 40.3148 -75.1268 40° Northeast 283 326 9,000 -1,688 Descending FlightAware ADS-B
Mon 11:40:56 AM 40.3304 -75.1087 41° Northeast 278 320 8,600 -1,548 Descending FlightAware ADS-B
Mon 11:41:11 AM 40.3445 -75.0915 43° Northeast 276 318 8,200 -1,548 Descending FlightAware ADS-B
Mon 11:41:27 AM 40.3584 -75.0736 44° Northeast 275 316 7,800 -1,548 Descending FlightAware ADS-B
Mon 11:41:42 AM 40.3722 -75.0547 46° Northeast 275 316 7,400 -1,548 Descending FlightAware ADS-B
Mon 11:41:58 AM 40.3859 -75.0353 47° Northeast 276 318 7,000 -1,313 Descending FlightAware ADS-B
Mon 11:42:14 AM 40.3999 -75.0160 46° Northeast 276 318 6,700 -727 Descending FlightAware ADS-B
Mon 11:42:31 AM 40.4147 -74.9952 47° Northeast 279 321 6,600 -188 Descending FlightAware ADS-B
Mon 11:42:46 AM 40.4284 -74.9762 47° Northeast 280 322 6,600 -387 Level FlightAware ADS-B
Mon 11:43:02 AM 40.4425 -74.9568 46° Northeast 285 328 6,400 -774 Descending FlightAware ADS-B
Mon 11:43:17 AM 40.4561 -74.9375 47° Northeast 282 325 6,200 -968 Descending FlightAware ADS-B
Mon 11:43:33 AM 40.4702 -74.9181 46° Northeast 282 325 5,900 -1,125 Descending FlightAware ADS-B
Mon 11:43:49 AM 40.4844 -74.8982 47° Northeast 279 321 5,600 -968 Descending FlightAware ADS-B
Mon 11:44:04 AM 40.4979 -74.8795 46° Northeast 282 325 5,400 -909 Descending FlightAware ADS-B
Mon 11:44:22 AM 40.5147 -74.8563 46° Northeast 282 325 5,100 -1,059 Descending FlightAware ADS-B
Mon 11:44:38 AM 40.5285 -74.8375 46° Northeast 282 325 4,800 -1,091 Descending FlightAware ADS-B
Mon 11:44:55 AM 40.5442 -74.8158 46° Northeast 280 322 4,500 -947 Descending FlightAware ADS-B
Mon 11:45:16 AM 40.5628 -74.7897 47° Northeast 280 322 4,200 -1,000 Descending FlightAware ADS-B
Mon 11:45:31 AM 40.5764 -74.7708 47° Northeast 279 321 3,900 -833 Descending FlightAware ADS-B
Mon 11:45:52 AM 40.5963 -74.7467 43° Northeast 273 314 3,700 -500 Descending FlightAware ADS-B
Mon 11:46:07 AM 40.6131 -74.7341 30° Northeast 275 316 3,600 -182 Descending FlightAware ADS-B
Mon 11:46:25 AM 40.6322 -74.7208 28° Northeast 271 312 3,600  Level FlightAware ADS-B
Mon 11:46:44 AM 40.6545 -74.7047 29° Northeast 286 329 3,600  Level FlightAware ADS-B
Mon 11:47:05 AM 40.6788 -74.6873 29° Northeast 282 325 3,600  Level FlightAware ADS-B
Mon 11:47:22 AM 40.6979 -74.6737 28° Northeast 277 319 3,600  Level FlightAware ADS-B
Mon 11:47:42 AM 40.7206 -74.6573 29° Northeast 275 316 3,600  Level FlightAware ADS-B
Mon 11:48:27 AM 40.7660 -74.6250 28° Northeast 274 315 3,600  Level FlightAware ADS-B
Mon 11:48:42 AM 40.7869 -74.6082 31° Northeast 273 314 3,600 -133 Level FlightAware ADS-B
Mon 11:49:12 AM 40.8090 -74.5780 46° Northeast 274 315 3,500 -200 Descending FlightAware ADS-B
Mon 11:49:42 AM 40.8380 -74.5370 47° Northeast 275 316 3,400 -200 Descending FlightAware ADS-B
Mon 11:50:12 AM 40.8640 -74.5030 45° Northeast 273 314 3,300 -171 Descending FlightAware ADS-B
Mon 11:50:17 AM 40.8700 -74.4940 49° Northeast 271 312 3,300  Level FlightAware ADS-B
Mon 11:50:42 AM 40.8900 -74.4680 44° Northeast 271 312 3,300 -409 Level FlightAware ADS-B
Mon 11:52:29 AM 40.9493 -74.3187 62° Northeast 239 275 2,400 -581 Descending FlightAware ADS-B
Mon 11:52:46 AM 40.9476 -74.2938 95° East 237 273 2,100 -938 Descending FlightAware ADS-B
Mon 11:53:01 AM 40.9471 -74.2721 92° East 236 272 1,900 -750 Descending FlightAware ADS-B
Mon 11:53:18 AM 40.9467 -74.2479 91° East 236 272 1,700 -514 Descending FlightAware ADS-B
Mon 11:53:36 AM 40.9464 -74.2221 91° East 226 260 1,600 -102 Descending FlightAware ADS-B
Mon 11:54:17 AM 40.9459 -74.1680 91° East 206 237 1,600 -180 Level FlightAware ADS-B
Mon 11:55:16 AM 40.9407 -74.1065 96° East 202 232 1,300 -281 Descending FlightAware ADS-B
Mon 11:55:21 AM 40.9396 -74.1021 108° East 151 174 1,300 -1,000 Level FlightAware ADS-B
Mon 11:55:34 AM 40.9367 -74.0908 109° East 145 167 1,000 -1,333 Descending FlightAware ADS-B
Mon 11:55:39 AM 40.9355 -74.0872 114° Southeast 143 165 900 -750 Descending FlightAware ADS-B
Mon 11:55:42 AM 40.9346 -74.0849 117° Southeast 140 161 900 -750 Level FlightAware ADS-B
Mon 11:55:47 AM 40.9327 -74.0816 127° Southeast 140 161 800 -500 Descending FlightAware ADS-B
Mon 11:55:54 AM 40.9295 -74.0773 135° Southeast 140 161 800 -545 Level FlightAware ADS-B
Mon 11:55:58 AM 40.9274 -74.0754 146° Southeast 141 162 700 -545 Descending FlightAware ADS-B
Mon 11:56:05 AM 40.9230 -74.0725 154° Southeast 141 162 700  Level FlightAware ADS-B
Mon 11:56:10 AM 40.9201 -74.0713 163° South 134 154 700 -600 Level FlightAware ADS-B
Mon 11:56:15 AM 40.9169 -74.0703 167° South 130 150 600 -500 Descending FlightAware ADS-B
Mon 11:56:22 AM 40.9131 -74.0695 171° South 130 150 600 -462 Level FlightAware ADS-B
Mon 11:56:28 AM 40.9094 -74.0688 172° South 131 151 500 -1,000 Descending FlightAware ADS-B
Mon 11:56:34 AM 40.9057 -74.0683 174° South 127 146 400 -923 Descending FlightAware ADS-B
Mon 11:56:41 AM 40.9017 -74.0680 177° South 125 144 300 -1,059 Descending FlightAware ADS-B
Mon 11:56:51 AM 40.8956 -74.0680 180° South 124 143 100 -667 Descending FlightAware ADS-B
Mon 11:56:59 AM 40.8915 -74.0680 180° South 122 140 100  Level FlightAware ADS-B

Login

Don't have an account? Register now (free) for customized features, flight alerts, and more!